createdAt,value
2023-04-17T00:02:25.623Z,35.60
2023-04-17T00:04:53.675Z,39.03
2023-04-17T00:07:24.151Z,36.03
2023-04-17T00:09:50.974Z,32.95
2023-04-17T00:12:17.585Z,35.03
2023-04-17T00:14:44.537Z,30.98
2023-04-17T00:17:11.055Z,35.97
2023-04-17T00:19:37.478Z,33.10
2023-04-17T00:22:03.878Z,32.45
2023-04-17T00:24:30.479Z,37.15
2023-04-17T00:26:57.275Z,31.02
2023-04-17T00:29:23.966Z,32.77
2023-04-17T00:31:50.574Z,33.00
2023-04-17T00:34:17.005Z,28.88
2023-04-17T00:36:43.419Z,30.00
2023-04-17T00:39:10.092Z,26.83
2023-04-17T00:41:36.729Z,27.47
2023-04-17T00:44:03.157Z,24.70
2023-04-17T00:46:30.647Z,22.13
2023-04-17T00:48:57.411Z,22.08
2023-04-17T00:51:23.933Z,23.77
2023-04-17T00:53:50.422Z,24.07
2023-04-17T00:56:16.898Z,27.83
2023-04-17T00:58:43.944Z,23.27
2023-04-17T01:01:10.886Z,21.50
2023-04-17T01:03:37.651Z,23.10
2023-04-17T01:06:04.329Z,20.27
2023-04-17T01:08:42.645Z,20.90
2023-04-17T01:11:10.235Z,21.27
2023-04-17T01:13:49.786Z,21.10
2023-04-17T01:16:16.399Z,17.98
2023-04-17T01:18:43.682Z,18.93
2023-04-17T01:23:54.651Z,24.67
2023-04-17T01:26:23.360Z,17.73
2023-04-17T01:28:54.761Z,19.20
2023-04-17T01:31:21.564Z,21.57
2023-04-17T01:33:49.205Z,20.88
2023-04-17T01:36:15.959Z,19.40
2023-04-17T01:38:42.535Z,20.13
2023-04-17T01:41:12.057Z,21.42
2023-04-17T01:43:43.744Z,18.80
2023-04-17T01:46:10.599Z,19.17
2023-04-17T01:48:37.316Z,20.08
2023-04-17T01:51:04.306Z,22.40
2023-04-17T01:53:31.919Z,18.80
2023-04-17T01:55:58.842Z,21.83
2023-04-17T01:58:25.346Z,21.20
2023-04-17T02:00:52.026Z,18.80
2023-04-17T02:03:19.227Z,19.27
2023-04-17T02:05:47.352Z,22.50
2023-04-17T02:08:14.362Z,20.80
2023-04-17T02:10:43.749Z,20.05
2023-04-17T02:13:10.925Z,19.15
2023-04-17T02:15:37.918Z,19.38
2023-04-17T02:18:08.345Z,19.40
2023-04-17T02:20:35.994Z,18.47
2023-04-17T02:23:04.501Z,21.05
2023-04-17T02:25:31.008Z,19.58
2023-04-17T02:27:57.604Z,19.83
2023-04-17T02:30:24.847Z,18.92
2023-04-17T02:32:53.014Z,22.00
2023-04-17T02:35:20.945Z,19.73
2023-04-17T02:37:47.895Z,19.30
2023-04-17T02:40:14.964Z,21.13
2023-04-17T02:42:41.483Z,21.30
2023-04-17T02:45:09.100Z,22.40
2023-04-17T02:47:35.726Z,24.33
2023-04-17T02:50:02.385Z,24.67
2023-04-17T02:52:30.217Z,25.20
2023-04-17T02:54:57.271Z,20.92
2023-04-17T02:57:24.486Z,22.47
2023-04-17T02:59:51.410Z,23.48
2023-04-17T03:02:22.015Z,24.00
2023-04-17T03:04:50.421Z,21.70
2023-04-17T03:07:18.753Z,27.27
2023-04-17T03:09:48.580Z,23.07
2023-04-17T03:12:16.609Z,22.33
2023-04-17T03:14:43.436Z,24.40
2023-04-17T03:17:11.787Z,24.45
2023-04-17T03:19:38.223Z,24.13
2023-04-17T03:22:05.065Z,23.30
2023-04-17T03:24:31.793Z,24.42
2023-04-17T03:26:59.664Z,22.85
2023-04-17T03:29:26.256Z,26.00
2023-04-17T03:31:52.810Z,24.40
2023-04-17T03:34:22.359Z,20.80
2023-04-17T03:36:49.196Z,23.50
2023-04-17T03:39:15.917Z,26.63
2023-04-17T03:41:42.372Z,26.73
2023-04-17T03:44:09.866Z,24.30
2023-04-17T03:46:36.430Z,27.20
2023-04-17T03:49:02.893Z,26.25
2023-04-17T03:51:29.470Z,25.77
2023-04-17T03:53:56.042Z,23.80
2023-04-17T03:56:22.580Z,26.38
2023-04-17T03:58:49.068Z,24.73
2023-04-17T04:01:15.878Z,26.48
2023-04-17T04:03:42.719Z,24.67
2023-04-17T04:06:09.663Z,30.05
2023-04-17T04:08:36.122Z,23.95
2023-04-17T04:11:03.207Z,23.13
2023-04-17T04:13:29.678Z,25.30
2023-04-17T04:15:56.191Z,25.25
2023-04-17T04:18:22.776Z,23.33
2023-04-17T04:20:49.204Z,26.00
2023-04-17T04:23:16.845Z,24.60
2023-04-17T04:25:43.626Z,30.10
2023-04-17T04:28:10.701Z,26.20
2023-04-17T04:30:38.809Z,28.85
2023-04-17T04:33:06.048Z,30.23
2023-04-17T04:35:32.745Z,23.93
2023-04-17T04:38:02.438Z,24.13
2023-04-17T04:40:30.796Z,28.05
2023-04-17T04:42:57.306Z,23.35
2023-04-17T04:45:23.980Z,25.95
2023-04-17T04:47:50.699Z,24.53
2023-04-17T04:50:17.660Z,31.50
2023-04-17T04:52:44.149Z,25.10
2023-04-17T04:55:10.609Z,26.73
2023-04-17T04:57:37.031Z,28.92
2023-04-17T05:00:06.569Z,27.93
2023-04-17T05:02:33.302Z,26.48
2023-04-17T05:05:00.172Z,28.02
2023-04-17T05:07:27.208Z,27.85
2023-04-17T05:09:53.636Z,29.45
2023-04-17T05:12:20.069Z,28.03
2023-04-17T05:14:47.876Z,30.85
2023-04-17T05:17:14.713Z,28.35
2023-04-17T05:19:41.140Z,31.33
2023-04-17T05:22:07.611Z,32.13
2023-04-17T05:24:34.081Z,29.13
2023-04-17T05:27:02.073Z,25.40
2023-04-17T05:29:28.642Z,26.20
2023-04-17T05:31:55.228Z,27.42
2023-04-17T05:34:21.725Z,29.52
2023-04-17T05:36:48.356Z,36.07
2023-04-17T05:39:14.888Z,26.80
2023-04-17T05:41:41.432Z,27.80
2023-04-17T05:44:08.348Z,30.58
2023-04-17T05:46:34.849Z,28.30
2023-04-17T05:49:01.272Z,27.20
2023-04-17T05:51:27.730Z,31.25
2023-04-17T05:53:54.186Z,32.35
2023-04-17T05:56:21.148Z,32.10
2023-04-17T05:58:47.606Z,28.50
2023-04-17T06:01:17.762Z,29.43
2023-04-17T06:03:44.409Z,34.05
2023-04-17T06:06:11.411Z,25.23
2023-04-17T06:08:37.856Z,27.40
2023-04-17T06:11:04.491Z,33.42
2023-04-17T06:13:31.077Z,27.83
2023-04-17T06:15:57.629Z,31.45
2023-04-17T06:18:24.146Z,29.48
2023-04-17T06:20:50.904Z,30.55
2023-04-17T06:23:17.508Z,34.92
2023-04-17T06:25:44.014Z,29.97
2023-04-17T06:28:10.654Z,33.45
2023-04-17T06:30:37.948Z,34.75
2023-04-17T06:33:04.583Z,30.98
2023-04-17T06:35:31.149Z,38.55
2023-04-17T06:37:58.295Z,35.10
2023-04-17T06:40:24.759Z,31.92
2023-04-17T06:42:51.360Z,35.88
2023-04-17T06:45:17.972Z,32.80
2023-04-17T06:47:46.501Z,36.78
2023-04-17T06:50:13.119Z,35.20
2023-04-17T06:52:39.574Z,32.13
2023-04-17T06:55:06.572Z,34.30
2023-04-17T06:57:34.102Z,34.13
2023-04-17T07:00:00.684Z,34.40
2023-04-17T07:02:27.542Z,30.00
2023-04-17T07:04:55.132Z,30.38
2023-04-17T07:07:21.716Z,32.03
2023-04-17T07:09:48.358Z,29.85
2023-04-17T07:12:17.846Z,32.78
2023-04-17T07:14:44.348Z,30.93
2023-04-17T07:17:11.057Z,31.00
2023-04-17T07:19:37.551Z,32.20
2023-04-17T07:22:05.503Z,29.85
2023-04-17T07:24:35.727Z,32.33
2023-04-17T07:27:03.405Z,29.70
2023-04-17T07:29:30.664Z,33.10
2023-04-17T07:31:57.240Z,34.97
2023-04-17T07:34:25.239Z,29.88
2023-04-17T07:36:54.543Z,31.95
2023-04-17T07:39:21.062Z,32.10
2023-04-17T07:41:48.414Z,32.80
2023-04-17T07:44:14.907Z,31.75
2023-04-17T07:46:43.059Z,29.83
2023-04-17T07:49:12.058Z,30.80
2023-04-17T07:51:41.122Z,33.27
2023-04-17T07:54:07.767Z,32.55
2023-04-17T07:56:34.660Z,30.80
2023-04-17T07:59:01.200Z,33.78
2023-04-17T08:01:27.738Z,31.80
2023-04-17T08:03:55.538Z,31.20
2023-04-17T08:06:22.228Z,33.60
2023-04-17T08:08:48.670Z,32.13
2023-04-17T08:11:15.452Z,33.65
2023-04-17T08:13:42.131Z,27.48
2023-04-17T08:16:09.970Z,34.27
2023-04-17T08:18:37.869Z,30.33
2023-04-17T08:21:04.464Z,33.22
2023-04-17T08:23:31.021Z,28.67
2023-04-17T08:25:57.742Z,30.85
2023-04-17T08:28:30.384Z,30.00
2023-04-17T08:30:57.281Z,31.90
2023-04-17T08:33:23.857Z,33.20
2023-04-17T08:35:51.957Z,32.30
2023-04-17T08:38:18.512Z,31.80
2023-04-17T08:40:52.009Z,32.17
2023-04-17T08:43:20.795Z,28.40
2023-04-17T08:45:55.139Z,31.80
2023-04-17T08:48:22.899Z,27.70
2023-04-17T08:50:51.036Z,31.63
2023-04-17T08:53:18.613Z,29.43
2023-04-17T08:55:45.891Z,29.92
2023-04-17T08:58:13.294Z,32.67
2023-04-17T09:00:41.557Z,28.35
2023-04-17T09:03:11.157Z,27.52
2023-04-17T09:05:39.933Z,31.00
2023-04-17T09:08:16.568Z,25.83
2023-04-17T09:10:45.935Z,26.50
2023-04-17T09:13:24.935Z,29.15
2023-04-17T09:16:25.770Z,28.50
2023-04-17T09:19:05.277Z,29.07
2023-04-17T09:21:31.747Z,26.35
2023-04-17T09:23:59.508Z,26.95
2023-04-17T09:26:27.672Z,29.17
2023-04-17T09:29:12.420Z,27.08
2023-04-17T09:31:43.412Z,26.30
2023-04-17T09:34:12.172Z,27.63
2023-04-17T09:36:41.613Z,29.23
2023-04-17T09:39:28.408Z,31.35
2023-04-17T09:42:03.944Z,29.58
2023-04-17T09:44:31.198Z,27.13
2023-04-17T09:46:58.857Z,32.05
2023-04-17T09:49:43.436Z,30.45
2023-04-17T09:52:10.397Z,27.17
2023-04-17T09:54:38.153Z,27.90
2023-04-17T09:57:09.802Z,31.40
2023-04-17T09:59:45.593Z,30.90
2023-04-17T10:02:17.771Z,29.63
2023-04-17T10:04:46.950Z,25.27
2023-04-17T10:07:14.103Z,26.52
2023-04-17T10:09:42.023Z,26.90
2023-04-17T10:12:14.739Z,26.27
2023-04-17T10:14:44.287Z,30.05
2023-04-17T10:17:28.758Z,24.45
2023-04-17T10:19:55.921Z,25.20
2023-04-17T10:22:24.083Z,25.03
2023-04-17T10:24:52.708Z,27.33
2023-04-17T10:27:28.343Z,29.40
2023-04-17T10:29:59.593Z,27.52
2023-04-17T10:32:30.368Z,28.73
2023-04-17T10:35:01.902Z,30.10
2023-04-17T10:37:46.869Z,26.58
2023-04-17T10:40:24.419Z,28.52
2023-04-17T10:43:23.005Z,25.60
2023-04-17T10:46:05.093Z,27.15
2023-04-17T10:48:42.359Z,30.17
2023-04-17T10:51:24.193Z,30.58
2023-04-17T10:53:55.512Z,30.70
2023-04-17T10:56:30.837Z,29.33
2023-04-17T10:59:02.064Z,31.98
2023-04-17T11:01:31.985Z,29.67
2023-04-17T11:04:01.840Z,29.88
2023-04-17T11:06:31.574Z,28.17
2023-04-17T11:09:00.822Z,31.95
2023-04-17T11:11:40.404Z,29.50
2023-04-17T11:14:14.357Z,28.27
2023-04-17T11:16:43.046Z,32.10
2023-04-17T11:19:11.300Z,25.33
2023-04-17T11:21:48.048Z,26.38
2023-04-17T11:24:22.636Z,27.98
2023-04-17T11:26:50.001Z,31.60
2023-04-17T11:29:17.565Z,27.55
2023-04-17T11:31:48.681Z,24.60
2023-04-17T11:34:16.258Z,28.02
2023-04-17T11:37:00.217Z,25.98
2023-04-17T11:39:29.768Z,25.00
2023-04-17T11:41:59.063Z,25.70
2023-04-17T11:44:26.258Z,29.25
2023-04-17T11:46:54.319Z,27.20
2023-04-17T11:49:26.269Z,24.85
2023-04-17T11:51:53.820Z,23.40
2023-04-17T11:54:37.566Z,27.35
2023-04-17T11:57:06.778Z,19.98
2023-04-17T11:59:38.068Z,23.75
2023-04-17T12:02:07.487Z,19.48
2023-04-17T12:04:36.605Z,20.77
2023-04-17T12:07:04.801Z,23.23
2023-04-17T12:09:32.458Z,20.70
2023-04-17T12:12:05.432Z,20.33
2023-04-17T12:14:32.392Z,23.40
2023-04-17T12:16:59.373Z,19.00
2023-04-17T12:19:27.295Z,21.70
2023-04-17T12:21:54.678Z,19.05
2023-04-17T12:24:24.085Z,21.73
2023-04-17T12:26:51.717Z,22.55
2023-04-17T12:29:20.399Z,19.40
2023-04-17T12:31:51.158Z,22.33
2023-04-17T12:34:17.688Z,21.48
2023-04-17T12:36:44.751Z,19.30
2023-04-17T12:39:12.963Z,21.98
2023-04-17T12:41:39.558Z,17.07
2023-04-17T12:44:06.226Z,21.30
2023-04-17T12:46:32.812Z,20.02
2023-04-17T12:48:59.379Z,23.25
2023-04-17T12:51:29.728Z,21.58
2023-04-17T12:53:56.355Z,30.13
2023-04-17T12:56:23.260Z,18.92
2023-04-17T12:58:49.953Z,23.30
2023-04-17T13:01:16.602Z,20.77
2023-04-17T13:03:43.319Z,20.05
2023-04-17T13:06:10.250Z,19.40
2023-04-17T13:08:36.680Z,21.10
2023-04-17T13:11:03.973Z,19.85
2023-04-17T13:13:30.600Z,21.17
2023-04-17T13:15:57.059Z,17.58
2023-04-17T13:18:23.545Z,21.80
2023-04-17T13:20:50.084Z,17.42
2023-04-17T13:23:16.601Z,18.25
2023-04-17T13:25:43.052Z,23.50
2023-04-17T13:28:09.491Z,15.15
2023-04-17T13:30:37.344Z,16.50
2023-04-17T13:33:04.192Z,15.63
2023-04-17T13:35:30.931Z,14.40
2023-04-17T13:38:00.884Z,17.90
2023-04-17T13:40:27.711Z,16.15
2023-04-17T13:42:54.643Z,19.43
2023-04-17T13:45:21.341Z,17.50
2023-04-17T13:47:47.943Z,18.63
2023-04-17T13:50:14.522Z,13.93
2023-04-17T13:52:40.951Z,17.15
2023-04-17T13:55:11.782Z,14.93
2023-04-17T13:57:38.568Z,17.40
2023-04-17T14:00:06.361Z,16.45
2023-04-17T14:02:33.116Z,14.07
2023-04-17T14:05:00.258Z,17.30
2023-04-17T14:07:27.529Z,18.10
2023-04-17T14:09:54.174Z,17.02
2023-04-17T14:12:21.766Z,17.17
2023-04-17T14:14:48.304Z,14.45
2023-04-17T14:17:14.882Z,13.70
2023-04-17T14:19:41.417Z,13.17
2023-04-17T14:22:07.982Z,18.63
2023-04-17T14:24:34.464Z,13.98
2023-04-17T14:27:01.947Z,15.90
2023-04-17T14:29:28.542Z,17.00
2023-04-17T14:31:55.225Z,15.63
2023-04-17T14:34:21.772Z,16.25
2023-04-17T14:36:48.787Z,17.67
2023-04-17T14:39:15.508Z,16.30
2023-04-17T14:41:42.375Z,19.08
2023-04-17T14:44:08.958Z,17.50
2023-04-17T14:46:35.672Z,16.05
2023-04-17T14:49:02.392Z,18.48
2023-04-17T14:51:30.426Z,17.95
2023-04-17T14:53:57.228Z,16.80
2023-04-17T14:56:23.828Z,20.13
2023-04-17T14:58:50.360Z,20.75
2023-04-17T15:01:16.918Z,20.20
2023-04-17T15:03:47.443Z,16.20
2023-04-17T15:06:14.762Z,18.95
2023-04-17T15:08:41.630Z,13.70
2023-04-17T15:11:08.708Z,13.38
2023-04-17T15:13:35.836Z,17.42
2023-04-17T15:16:02.788Z,17.30
2023-04-17T15:18:29.298Z,18.45
2023-04-17T15:20:56.125Z,13.73
2023-04-17T15:23:22.878Z,18.20
2023-04-17T15:25:49.447Z,16.88
2023-04-17T15:28:16.074Z,17.52
2023-04-17T15:30:42.762Z,18.73
2023-04-17T15:33:10.357Z,22.93
2023-04-17T15:35:37.443Z,20.73
2023-04-17T15:38:05.565Z,20.90
2023-04-17T15:40:32.009Z,21.42
2023-04-17T15:42:58.429Z,19.20
2023-04-17T15:45:26.202Z,19.97
2023-04-17T15:47:53.605Z,19.77
2023-04-17T15:50:21.348Z,23.08
2023-04-17T15:52:48.170Z,18.20
2023-04-17T15:55:15.078Z,18.98
2023-04-17T15:57:43.156Z,16.83
2023-04-17T16:00:10.564Z,18.90
2023-04-17T16:02:37.186Z,16.63
2023-04-17T16:05:04.350Z,17.10
2023-04-17T16:07:31.838Z,17.30
2023-04-17T16:09:58.478Z,16.67
2023-04-17T16:12:24.917Z,16.17
2023-04-17T16:14:51.416Z,16.38
2023-04-17T16:17:18.138Z,10.93
2023-04-17T16:19:44.669Z,14.00
2023-04-17T16:22:11.136Z,14.10
2023-04-17T16:24:37.572Z,14.05
2023-04-17T16:27:06.290Z,15.45
2023-04-17T16:29:32.775Z,17.88
2023-04-17T16:31:59.604Z,17.25
2023-04-17T16:34:26.182Z,14.67
2023-04-17T16:36:52.667Z,16.38
2023-04-17T16:39:19.173Z,18.70
2023-04-17T16:41:45.617Z,17.92
2023-04-17T16:44:12.179Z,15.38
2023-04-17T16:49:10.100Z,15.30
2023-04-17T16:51:38.285Z,16.27
2023-04-17T16:54:04.949Z,16.02
2023-04-17T16:56:31.431Z,15.35
2023-04-17T16:58:57.888Z,15.17
2023-04-17T17:01:24.379Z,14.00
2023-04-17T17:03:51.077Z,17.10
2023-04-17T17:06:17.773Z,15.25
2023-04-17T17:08:46.770Z,19.35
2023-04-17T17:11:15.025Z,17.67
2023-04-17T17:13:41.470Z,18.60
2023-04-17T17:16:08.084Z,17.67
2023-04-17T17:18:34.530Z,16.90
2023-04-17T17:21:01.917Z,19.17
2023-04-17T17:23:28.478Z,13.97
2023-04-17T17:25:54.931Z,16.13
2023-04-17T17:28:21.816Z,16.15
2023-04-17T17:30:48.539Z,16.50
2023-04-17T17:33:15.074Z,20.40
2023-04-17T17:35:41.530Z,19.93
2023-04-17T17:38:07.942Z,16.00
2023-04-17T17:40:34.408Z,15.07
2023-04-17T17:43:01.468Z,17.10
2023-04-17T17:45:27.962Z,16.45
2023-04-17T17:47:54.484Z,15.73
2023-04-17T17:50:21.045Z,16.73
2023-04-17T17:52:52.296Z,19.10
2023-04-17T17:55:19.058Z,17.27
2023-04-17T17:57:49.223Z,17.38
2023-04-17T18:00:16.659Z,18.17
2023-04-17T18:02:43.347Z,17.05
2023-04-17T18:05:10.141Z,17.13
2023-04-17T18:07:36.701Z,17.77
2023-04-17T18:10:03.733Z,16.83
2023-04-17T18:12:30.274Z,20.10
2023-04-17T18:14:56.813Z,19.40
2023-04-17T18:17:23.274Z,17.83
2023-04-17T18:19:49.771Z,15.88
2023-04-17T18:22:16.362Z,17.67
2023-04-17T18:24:45.881Z,16.93
2023-04-17T18:27:12.468Z,17.30
2023-04-17T18:29:38.976Z,16.90
2023-04-17T18:32:05.418Z,18.13
2023-04-17T18:34:31.874Z,16.30
2023-04-17T18:37:00.238Z,20.67
2023-04-17T18:39:26.741Z,18.85
2023-04-17T18:41:53.305Z,21.08
2023-04-17T18:44:20.518Z,17.75
2023-04-17T18:46:50.842Z,21.20
2023-04-17T18:49:17.320Z,21.63
2023-04-17T18:51:50.300Z,25.95
2023-04-17T18:54:18.024Z,22.23
2023-04-17T18:56:44.828Z,21.08
2023-04-17T18:59:12.065Z,23.50
2023-04-17T19:01:38.750Z,20.17
2023-04-17T19:04:05.294Z,22.38
2023-04-17T19:06:31.859Z,19.02
2023-04-17T19:08:58.414Z,24.10
2023-04-17T19:11:28.188Z,19.38
2023-04-17T19:13:54.715Z,20.80
2023-04-17T19:16:21.290Z,20.30
2023-04-17T19:18:47.758Z,22.33
2023-04-17T19:21:16.032Z,21.15
2023-04-17T19:23:42.861Z,22.48
2023-04-17T19:26:09.725Z,19.60
2023-04-17T19:28:36.340Z,19.77
2023-04-17T19:31:03.150Z,20.95
2023-04-17T19:33:31.996Z,18.67
2023-04-17T19:35:59.183Z,17.77
2023-04-17T19:38:26.028Z,18.97
2023-04-17T19:41:15.216Z,19.42
2023-04-17T19:43:42.534Z,16.83
2023-04-17T19:46:09.403Z,20.02
2023-04-17T19:48:36.816Z,18.55
2023-04-17T19:51:07.074Z,20.00
2023-04-17T19:53:39.397Z,16.75
2023-04-17T19:56:08.980Z,17.05
2023-04-17T19:58:36.476Z,19.23
2023-04-17T20:01:03.093Z,17.67
2023-04-17T20:03:30.737Z,16.93
2023-04-17T20:05:58.175Z,16.60
2023-04-17T20:08:25.609Z,14.50
2023-04-17T20:10:52.271Z,14.85
2023-04-17T20:13:18.841Z,17.38
2023-04-17T20:15:45.371Z,14.80
2023-04-17T20:18:11.888Z,17.73
2023-04-17T20:20:43.085Z,59.47
2023-04-17T20:23:09.609Z,20.33
2023-04-17T20:25:36.208Z,17.73
2023-04-17T20:28:02.933Z,16.63
2023-04-17T20:30:30.357Z,20.75
2023-04-17T20:32:57.156Z,20.30
2023-04-17T20:35:24.639Z,19.15
2023-04-17T20:37:52.002Z,16.83
2023-04-17T20:40:19.022Z,17.87
2023-04-17T20:42:46.666Z,21.10
2023-04-17T20:45:13.406Z,19.05
2023-04-17T20:47:55.405Z,17.10
2023-04-17T20:50:23.476Z,21.47
2023-04-17T20:52:50.083Z,19.43
2023-04-17T20:55:18.915Z,17.20
2023-04-17T20:57:45.994Z,16.55
2023-04-17T21:00:13.261Z,18.40
2023-04-17T21:02:40.035Z,20.35
2023-04-17T21:05:07.618Z,17.97
2023-04-17T21:07:34.130Z,19.83
2023-04-17T21:10:00.581Z,18.13
2023-04-17T21:12:27.110Z,16.35
2023-04-17T21:14:53.557Z,16.30
2023-04-17T21:17:20.041Z,21.57
2023-04-17T21:19:47.254Z,20.13
2023-04-17T21:22:13.745Z,17.73
2023-04-17T21:24:40.276Z,20.42
2023-04-17T21:27:06.743Z,17.92
2023-04-17T21:29:33.182Z,18.37
2023-04-17T21:31:59.781Z,16.60
2023-04-17T21:34:26.443Z,18.55
2023-04-17T21:36:56.561Z,18.33
2023-04-17T21:39:23.029Z,20.85
2023-04-17T21:41:49.446Z,16.87
2023-04-17T21:44:16.096Z,18.10
2023-04-17T21:46:46.204Z,20.42
2023-04-17T21:49:12.872Z,18.23
2023-04-17T21:51:39.707Z,18.15
2023-04-17T21:54:06.297Z,19.50
2023-04-17T21:56:32.831Z,18.45
2023-04-17T21:58:59.286Z,21.05
2023-04-17T22:01:25.775Z,23.23
2023-04-17T22:03:52.404Z,19.80
2023-04-17T22:06:18.942Z,21.60
2023-04-17T22:08:45.486Z,19.30
2023-04-17T22:11:12.049Z,19.63
2023-04-17T22:13:38.576Z,20.77
2023-04-17T22:16:05.310Z,19.67
2023-04-17T22:18:31.882Z,24.53
2023-04-17T22:20:58.355Z,22.15
2023-04-17T22:23:24.809Z,20.33
2023-04-17T22:25:51.335Z,23.33
2023-04-17T22:28:17.866Z,20.40
2023-04-17T22:30:45.130Z,24.23
2023-04-17T22:33:11.694Z,22.17
2023-04-17T22:35:38.232Z,18.65
2023-04-17T22:38:04.672Z,21.95
2023-04-17T22:40:31.205Z,19.52
2023-04-17T22:42:58.057Z,20.03
2023-04-17T22:45:24.553Z,23.63
2023-04-17T22:47:51.081Z,24.92
2023-04-17T22:50:17.728Z,23.30
2023-04-17T22:52:45.146Z,20.98
2023-04-17T22:55:11.693Z,20.67
2023-04-17T22:57:38.163Z,22.50
2023-04-17T23:00:06.432Z,25.50
2023-04-17T23:02:33.039Z,22.92
2023-04-17T23:04:59.641Z,24.05
2023-04-17T23:07:26.241Z,21.60
2023-04-17T23:09:52.696Z,20.15
2023-04-17T23:12:19.964Z,20.15
2023-04-17T23:14:49.854Z,17.85
2023-04-17T23:17:16.368Z,20.20
2023-04-17T23:19:42.918Z,21.37
2023-04-17T23:22:09.865Z,19.88
2023-04-17T23:24:36.395Z,20.67
2023-04-17T23:27:02.871Z,20.80
2023-04-17T23:29:29.314Z,20.20
2023-04-17T23:31:55.830Z,21.63
2023-04-17T23:34:22.483Z,23.25
2023-04-17T23:36:49.745Z,19.25
2023-04-17T23:39:16.157Z,24.20
2023-04-17T23:41:42.776Z,23.27
2023-04-17T23:44:09.828Z,25.17
2023-04-17T23:46:36.670Z,23.40
2023-04-17T23:49:03.549Z,23.15
2023-04-17T23:51:30.381Z,19.85
2023-04-17T23:54:01.077Z,20.52
2023-04-17T23:56:29.999Z,21.47
2023-04-17T23:58:57.203Z,18.15
